createdAt,value
2023-04-09T00:18:34.622Z,23.60
2023-04-09T00:21:09.035Z,23.27
2023-04-09T00:23:40.925Z,23.90
2023-04-09T00:26:12.918Z,23.43
2023-04-09T00:28:43.969Z,24.47
2023-04-09T00:31:15.135Z,22.80
2023-04-09T00:33:43.038Z,23.73
2023-04-09T00:36:15.950Z,29.80
2023-04-09T00:38:43.525Z,23.63
2023-04-09T00:41:11.478Z,26.33
2023-04-09T00:43:42.093Z,27.17
2023-04-09T00:46:28.982Z,23.60
2023-04-09T00:48:56.831Z,23.13
2023-04-09T00:51:24.773Z,25.23
2023-04-09T00:53:56.009Z,25.63
2023-04-09T00:56:24.930Z,24.93
2023-04-09T00:58:52.598Z,24.50
2023-04-09T01:01:20.851Z,22.63
2023-04-09T01:03:48.991Z,25.70
2023-04-09T01:06:52.864Z,22.10
2023-04-09T01:09:43.920Z,25.03
2023-04-09T01:12:48.438Z,24.53
2023-04-09T01:15:27.081Z,23.13
2023-04-09T01:18:16.262Z,23.40
2023-04-09T01:20:58.394Z,24.00
2023-04-09T01:23:59.144Z,21.97
2023-04-09T01:27:09.601Z,21.77
2023-04-09T01:29:51.424Z,22.60
2023-04-09T01:32:23.050Z,28.50
2023-04-09T01:34:53.392Z,27.83
2023-04-09T01:37:24.035Z,24.87
2023-04-09T01:39:52.094Z,31.63
2023-04-09T01:42:21.245Z,25.10
2023-04-09T01:44:49.746Z,24.90
2023-04-09T01:47:17.734Z,22.63
2023-04-09T01:49:46.348Z,21.90
2023-04-09T01:52:15.965Z,23.90
2023-04-09T01:54:44.036Z,23.60
2023-04-09T01:57:11.575Z,23.17
2023-04-09T01:59:39.308Z,23.20
2023-04-09T02:02:26.752Z,23.80
2023-04-09T02:05:02.239Z,21.83
2023-04-09T02:07:44.677Z,22.63
2023-04-09T02:10:17.613Z,22.77
2023-04-09T02:12:55.667Z,26.93
2023-04-09T02:15:25.103Z,20.43
2023-04-09T02:17:52.835Z,20.80
2023-04-09T02:20:20.804Z,24.60
2023-04-09T02:22:48.728Z,20.50
2023-04-09T02:25:16.237Z,20.57
2023-04-09T02:27:44.545Z,23.37
2023-04-09T02:30:12.186Z,21.37
2023-04-09T02:32:39.852Z,23.20
2023-04-09T02:35:08.745Z,24.57
2023-04-09T02:37:39.758Z,20.80
2023-04-09T02:40:08.770Z,25.87
2023-04-09T02:42:38.609Z,22.37
2023-04-09T02:45:10.132Z,24.60
2023-04-09T02:47:40.967Z,22.13
2023-04-09T02:50:13.274Z,24.60
2023-04-09T02:52:48.424Z,25.93
2023-04-09T02:55:19.707Z,23.87
2023-04-09T02:57:47.691Z,24.30
2023-04-09T03:00:15.714Z,25.10
2023-04-09T03:02:43.649Z,33.10
2023-04-09T03:05:11.667Z,24.30
2023-04-09T03:07:39.651Z,24.33
2023-04-09T03:10:22.268Z,23.37
2023-04-09T03:12:52.902Z,24.03
2023-04-09T03:15:25.245Z,24.87
2023-04-09T03:17:52.831Z,26.97
2023-04-09T03:20:25.066Z,31.17
2023-04-09T03:22:58.078Z,23.30
2023-04-09T03:25:49.173Z,24.13
2023-04-09T03:28:22.633Z,23.13
2023-04-09T03:30:59.517Z,33.73
2023-04-09T03:33:44.623Z,29.50
2023-04-09T03:36:19.454Z,27.70
2023-04-09T03:39:03.800Z,31.23
2023-04-09T03:41:53.673Z,23.80
2023-04-09T03:44:21.353Z,26.13
2023-04-09T03:46:58.444Z,26.87
2023-04-09T03:49:27.131Z,28.40
2023-04-09T03:51:58.591Z,79.63
2023-04-09T03:54:33.886Z,37.07
2023-04-09T03:57:04.832Z,33.87
2023-04-09T03:59:35.783Z,33.47
2023-04-09T04:02:07.286Z,51.07
2023-04-09T04:04:38.852Z,54.90
2023-04-09T04:07:10.273Z,39.83
2023-04-09T04:09:49.374Z,55.55
2023-04-09T04:12:19.930Z,68.03
2023-04-09T04:15:08.731Z,88.05
2023-04-09T04:17:46.475Z,80.35
2023-04-09T04:20:23.519Z,53.03
2023-04-09T04:23:08.328Z,56.55
2023-04-09T04:25:44.916Z,47.07
2023-04-09T04:28:17.760Z,109.27
2023-04-09T04:30:45.931Z,104.37
2023-04-09T04:33:16.570Z,25.93
2023-04-09T04:35:52.858Z,113.13
2023-04-09T04:38:34.817Z,31.50
2023-04-09T04:41:07.719Z,24.93
2023-04-09T04:43:42.442Z,78.23
2023-04-09T04:46:17.881Z,34.60
2023-04-09T04:48:49.089Z,113.93
2023-04-09T04:51:17.210Z,115.95
2023-04-09T04:53:57.524Z,69.97
2023-04-09T04:56:26.125Z,30.53
2023-04-09T04:59:02.411Z,36.47
2023-04-09T05:01:37.551Z,93.47
2023-04-09T05:04:08.949Z,64.30
2023-04-09T05:06:38.455Z,116.10
2023-04-09T05:09:10.220Z,66.67
2023-04-09T05:11:45.575Z,100.87
2023-04-09T05:14:21.155Z,110.87
2023-04-09T05:16:50.369Z,134.30
2023-04-09T05:19:21.144Z,60.90
2023-04-09T05:21:51.091Z,63.43
2023-04-09T05:24:22.261Z,74.13
2023-04-09T05:26:51.043Z,72.10
2023-04-09T05:29:18.543Z,143.40
2023-04-09T05:31:49.304Z,124.43
2023-04-09T05:34:36.753Z,54.13
2023-04-09T05:37:05.643Z,34.55
2023-04-09T05:39:34.318Z,80.33
2023-04-09T05:42:02.765Z,39.27
2023-04-09T05:44:34.365Z,31.80
2023-04-09T05:47:09.788Z,46.33
2023-04-09T05:49:45.797Z,41.10
2023-04-09T05:52:21.756Z,36.90
2023-04-09T05:54:54.370Z,37.50
2023-04-09T05:57:30.392Z,34.70
2023-04-09T06:00:01.582Z,33.10
2023-04-09T06:02:32.182Z,34.80
2023-04-09T06:05:07.076Z,35.97
2023-04-09T06:07:36.455Z,34.73
2023-04-09T06:10:08.186Z,32.10
2023-04-09T06:12:37.561Z,34.07
2023-04-09T06:15:09.563Z,44.60
2023-04-09T06:17:37.406Z,32.07
2023-04-09T06:20:06.307Z,30.50
2023-04-09T06:22:33.800Z,27.43
2023-04-09T06:25:01.707Z,29.17
2023-04-09T06:27:30.977Z,29.47
2023-04-09T06:30:49.666Z,27.97
2023-04-09T06:33:33.472Z,28.83
2023-04-09T06:36:20.228Z,30.30
2023-04-09T06:38:56.453Z,30.97
2023-04-09T06:41:28.554Z,28.90
2023-04-09T06:43:56.167Z,42.80
2023-04-09T06:46:29.344Z,28.50
2023-04-09T06:48:57.691Z,32.13
2023-04-09T06:51:27.268Z,35.57
2023-04-09T06:53:57.663Z,114.03
2023-04-09T06:56:51.754Z,52.33
2023-04-09T06:59:20.708Z,35.03
2023-04-09T07:01:56.883Z,36.40
2023-04-09T07:04:30.512Z,32.50
2023-04-09T07:07:16.143Z,32.90
2023-04-09T07:09:46.683Z,32.83
2023-04-09T07:12:42.522Z,30.30
2023-04-09T07:15:26.260Z,35.83
2023-04-09T07:17:54.090Z,34.87
2023-04-09T07:20:24.385Z,34.80
2023-04-09T07:22:52.136Z,36.30
2023-04-09T07:25:22.316Z,37.07
2023-04-09T07:27:50.212Z,35.10
2023-04-09T07:30:27.792Z,35.20
2023-04-09T07:33:02.872Z,34.50
2023-04-09T07:35:32.457Z,34.03
2023-04-09T07:38:00.869Z,36.30
2023-04-09T07:40:28.655Z,37.23
2023-04-09T07:42:59.002Z,32.47
2023-04-09T07:45:26.670Z,34.00
2023-04-09T07:47:54.652Z,30.20
2023-04-09T07:50:22.669Z,30.20
2023-04-09T07:52:53.397Z,28.30
2023-04-09T07:55:21.788Z,31.80
2023-04-09T07:57:51.868Z,33.40
2023-04-09T08:00:19.720Z,32.23
2023-04-09T08:02:50.138Z,33.73
2023-04-09T08:05:21.624Z,31.20
2023-04-09T08:07:53.864Z,30.67
2023-04-09T08:10:22.982Z,29.77
2023-04-09T08:12:51.012Z,33.00
2023-04-09T08:15:19.215Z,31.33
2023-04-09T08:17:49.575Z,28.20
2023-04-09T08:20:17.219Z,28.87
2023-04-09T08:22:46.041Z,29.30
2023-04-09T08:25:13.970Z,31.00
2023-04-09T08:27:44.679Z,31.17
2023-04-09T08:30:19.630Z,33.10
2023-04-09T08:32:47.477Z,32.13
2023-04-09T08:35:18.746Z,40.87
2023-04-09T08:37:46.985Z,68.47
2023-04-09T08:40:17.041Z,35.83
2023-04-09T08:42:46.640Z,32.43
2023-04-09T08:45:27.324Z,33.07
2023-04-09T08:48:34.445Z,33.80
2023-04-09T08:54:22.809Z,31.57
2023-04-09T08:57:50.343Z,34.30
2023-04-09T09:00:31.532Z,30.03
2023-04-09T09:03:33.595Z,31.17
